KRKR/RKR METAR and TAF weather

Enter ICAO airport designator
Station Type Date Time Source
KRKR METAR 2019/10/21 05:15 UTC NOAA

KRKR 210515Z AUTO 16009G20KT 10SM CLR 25/17 A2949 RMK AO2 LTG DSNT S


Station Type Date Time Source
KRKR Decoded METAR 2019/10/21 05:15 UTC NOAA

Poteau, Robert S Kerr Airport, OK, United States (KRKR) 35-01-18N 094-37-17W
Oct 21, 2019 - 01:15 AM EDT / 2019.10.21 0515 UTC
Wind: from the SSE (160 degrees) at 10 MPH (9 KT) gusting to 23 MPH (20 KT):0
Visibility: 10 mile(s):0
Sky conditions: clear
Weather: Lightning observed
Temperature: 77 F (25 C)
Dew Point: 62 F (17 C)
Relative Humidity: 61%
Pressure (altimeter): 29.49 in. Hg (998 hPa)
ob: KRKR 210515Z AUTO 16009G20KT 10SM CLR 25/17 A2949 RMK AO2 LTG DSNT S
cycle: 5

Station Type Date Time Source
KRKR TAF UTC NOAA

Error!

Example: see airport list